Losan — 9HQB8 — position and weather

sailwx.info

Track history (hours):
 
Tides and Currents Weather Stations Pressure Air Temp Water Temp Dewpoint Dewpoint Depression Visibility Wind Speed Wind Dir Waves Ship Positions

Losan

Last reported at 2017-Aug-11 10:57 UTC. Time now 2017-Dec-14 08:22 UTC.
Position N 32°37' E 033°01'.
Warning: this ship's position is months out of date.

Length 180 m; draft 10.1 m.

Type: Ship. MMSI: 224561000.

Date/timePositionNaut miles runAvg speedWind from/ knotsBaromVisibWave heightAir tempDewpointWater temp
2017-Aug-11 10:57N 32°37' E 033°01'9312.5
2017-Aug-11 03:32N 31°51' E 034°37'0 9.7
2017-Aug-11 03:29N 31°51' E 034°37'  
2017-Aug-08 08:48N 31°52' E 034°39'1 1.7
2017-Aug-08 08:25N 31°52' E 034°38'10 6.0
2017-Aug-08 06:46N 31°54' E 034°27'512.0
2017-Aug-08 06:20N 31°55' E 034°21'1812.2
2017-Aug-08 04:51N 32°03' E 034°02'712.4
2017-Aug-08 04:20N 32°06' E 033°55'512.3
2017-Aug-08 03:55N 32°08' E 033°49'612.2
2017-Aug-08 03:26N 32°11' E 033°44'912.2
2017-Aug-08 02:41N 32°17' E 033°35'  
Track history (hours):
 
Tides and Currents Weather Stations Pressure Air Temp Water Temp Dewpoint Dewpoint Depression Visibility Wind Speed Wind Dir Waves Ship Positions

Losan

Last reported at 2017-Aug-11 10:57 UTC. Time now 2017-Dec-14 08:22 UTC.
Position N 32°37' E 033°01'.
Warning: this ship's position is months out of date.

Length 180 m; draft 10.1 m.

Type: Ship. MMSI: 224561000.

Date/timePositionNaut miles runAvg speedWind from/ knotsBaromVisibWave heightAir tempDewpointWater temp
2017-Aug-11 10:57N 32°37' E 033°01'9312.5
2017-Aug-11 03:32N 31°51' E 034°37'0 9.7
2017-Aug-11 03:29N 31°51' E 034°37'  
2017-Aug-08 08:48N 31°52' E 034°39'1 1.7
2017-Aug-08 08:25N 31°52' E 034°38'10 6.0
2017-Aug-08 06:46N 31°54' E 034°27'512.0
2017-Aug-08 06:20N 31°55' E 034°21'1812.2
2017-Aug-08 04:51N 32°03' E 034°02'712.4
2017-Aug-08 04:20N 32°06' E 033°55'512.3
2017-Aug-08 03:55N 32°08' E 033°49'612.2
2017-Aug-08 03:26N 32°11' E 033°44'912.2
2017-Aug-08 02:41N 32°17' E 033°35'  

Dump ship's entire track history